sensor_id;sensor_type;location;lat;lon;timestamp;pressure;altitude;pressure_sealevel;temperature;humidity
71643;BME280;59438;45.014;39.006;2023-05-10T00:01:58;101519.00;;;10.08;83.37
71643;BME280;59438;45.014;39.006;2023-05-10T00:04:24;101519.03;;;10.07;82.56
71643;BME280;59438;45.014;39.006;2023-05-10T00:06:50;101518.22;;;10.05;82.79
71643;BME280;59438;45.014;39.006;2023-05-10T00:09:17;101530.44;;;10.04;82.56
71643;BME280;59438;45.014;39.006;2023-05-10T00:11:43;101522.69;;;10.00;82.64
71643;BME280;59438;45.014;39.006;2023-05-10T00:14:09;101505.38;;;9.91;82.41
71643;BME280;59438;45.014;39.006;2023-05-10T00:16:37;101523.50;;;10.02;83.16
71643;BME280;59438;45.014;39.006;2023-05-10T00:19:04;101518.25;;;10.02;82.77
71643;BME280;59438;45.014;39.006;2023-05-10T00:21:30;101521.81;;;10.01;83.26
71643;BME280;59438;45.014;39.006;2023-05-10T00:23:56;101528.78;;;10.00;82.66
71643;BME280;59438;45.014;39.006;2023-05-10T00:26:23;101524.44;;;9.99;82.66
71643;BME280;59438;45.014;39.006;2023-05-10T00:28:49;101526.22;;;9.99;82.55
71643;BME280;59438;45.014;39.006;2023-05-10T00:31:15;101521.00;;;9.97;82.69
71643;BME280;59438;45.014;39.006;2023-05-10T00:33:43;101516.59;;;9.98;82.95
71643;BME280;59438;45.014;39.006;2023-05-10T00:36:09;101521.00;;;9.97;82.76
71643;BME280;59438;45.014;39.006;2023-05-10T00:38:36;101500.25;;;9.86;82.50
71643;BME280;59438;45.014;39.006;2023-05-10T00:41:02;101514.88;;;9.97;82.88
71643;BME280;59438;45.014;39.006;2023-05-10T00:43:28;101514.84;;;9.98;82.84
71643;BME280;59438;45.014;39.006;2023-05-10T00:45:55;101518.34;;;9.99;82.75
71643;BME280;59438;45.014;39.006;2023-05-10T00:48:22;101507.84;;;9.99;82.62
71643;BME280;59438;45.014;39.006;2023-05-10T00:50:50;101513.09;;;9.99;82.22
71643;BME280;59438;45.014;39.006;2023-05-10T00:53:16;101510.53;;;9.96;82.32
71643;BME280;59438;45.014;39.006;2023-05-10T00:55:43;101514.91;;;9.95;82.84
71643;BME280;59438;45.014;39.006;2023-05-10T00:58:09;101514.09;;;9.93;82.49
71643;BME280;59438;45.014;39.006;2023-05-10T01:00:36;101506.22;;;9.92;82.68
71643;BME280;59438;45.014;39.006;2023-05-10T01:03:04;101508.00;;;9.91;82.78
71643;BME280;59438;45.014;39.006;2023-05-10T01:05:30;101505.41;;;9.89;82.43
71643;BME280;59438;45.014;39.006;2023-05-10T01:07:58;101510.69;;;9.88;81.88
71643;BME280;59438;45.014;39.006;2023-05-10T01:10:24;101511.63;;;9.84;81.88
71643;BME280;59438;45.014;39.006;2023-05-10T01:12:51;101503.81;;;9.82;82.77
71643;BME280;59438;45.014;39.006;2023-05-10T01:15:18;101504.72;;;9.80;82.77
71643;BME280;59438;45.014;39.006;2023-05-10T01:17:46;101515.22;;;9.80;82.48
71643;BME280;59438;45.014;39.006;2023-05-10T01:20:14;101505.69;;;9.76;83.02
71643;BME280;59438;45.014;39.006;2023-05-10T01:23:03;101505.66;;;9.77;82.41
71643;BME280;59438;45.014;39.006;2023-05-10T01:25:43;101504.00;;;9.73;82.43
71643;BME280;59438;45.014;39.006;2023-05-10T01:34:16;101516.94;;;9.82;83.18
71643;BME280;59438;45.014;39.006;2023-05-10T01:36:48;101523.91;;;9.83;82.77
71643;BME280;59438;45.014;39.006;2023-05-10T01:39:19;101478.97;;;9.58;82.05
71643;BME280;59438;45.014;39.006;2023-05-10T01:41:52;101524.72;;;9.85;83.08
71643;BME280;59438;45.014;39.006;2023-05-10T01:44:27;101522.09;;;9.85;82.51
71643;BME280;59438;45.014;39.006;2023-05-10T01:47:01;101527.34;;;9.87;82.98
71643;BME280;59438;45.014;39.006;2023-05-10T01:49:33;101530.78;;;9.89;82.80
71643;BME280;59438;45.014;39.006;2023-05-10T01:52:06;101517.84;;;9.80;82.83
71643;BME280;59438;45.014;39.006;2023-05-10T01:54:35;101525.56;;;9.87;82.75
71643;BME280;59438;45.014;39.006;2023-05-10T01:57:06;101526.47;;;9.86;82.35
71643;BME280;59438;45.014;39.006;2023-05-10T01:59:34;101512.69;;;9.77;82.09
71643;BME280;59438;45.014;39.006;2023-05-10T02:02:02;101534.41;;;9.82;82.52
71643;BME280;59438;45.014;39.006;2023-05-10T02:04:30;101531.78;;;9.83;82.50
71643;BME280;59438;45.014;39.006;2023-05-10T02:06:57;101537.03;;;9.82;82.00
71643;BME280;59438;45.014;39.006;2023-05-10T02:09:25;101517.00;;;9.78;82.49
71643;BME280;59438;45.014;39.006;2023-05-10T02:11:54;101524.75;;;9.84;82.47
71643;BME280;59438;45.014;39.006;2023-05-10T02:14:21;101531.78;;;9.83;82.73
71643;BME280;59438;45.014;39.006;2023-05-10T02:16:49;101545.75;;;9.84;82.14
71643;BME280;59438;45.014;39.006;2023-05-10T02:19:18;101541.41;;;9.84;81.49
71643;BME280;59438;45.014;39.006;2023-05-10T02:21:47;101544.88;;;9.85;82.17
71643;BME280;59438;45.014;39.006;2023-05-10T02:24:16;101541.34;;;9.86;81.92
71643;BME280;59438;45.014;39.006;2023-05-10T02:26:44;101537.84;;;9.87;82.28
71643;BME280;59438;45.014;39.006;2023-05-10T02:29:12;101548.31;;;9.87;81.63
71643;BME280;59438;45.014;39.006;2023-05-10T02:31:39;101543.94;;;9.87;82.47
71643;BME280;59438;45.014;39.006;2023-05-10T02:34:07;101551.81;;;9.87;82.25
71643;BME280;59438;45.014;39.006;2023-05-10T02:36:34;101543.06;;;9.88;81.58
71643;BME280;59438;45.014;39.006;2023-05-10T02:39:03;101543.06;;;9.88;82.51
71643;BME280;59438;45.014;39.006;2023-05-10T02:41:31;101550.94;;;9.88;81.59
71643;BME280;59438;45.014;39.006;2023-05-10T02:44:01;101549.22;;;9.86;82.39
71643;BME280;59438;45.014;39.006;2023-05-10T02:46:28;101550.94;;;9.87;81.81
71643;BME280;59438;45.014;39.006;2023-05-10T02:48:55;101548.34;;;9.85;82.10
71643;BME280;59438;45.014;39.006;2023-05-10T02:51:24;101529.38;;;9.73;81.69
71643;BME280;59438;45.014;39.006;2023-05-10T02:53:53;101551.94;;;9.81;81.83
71643;BME280;59438;45.014;39.006;2023-05-10T02:56:31;101559.81;;;9.81;82.46
71643;BME280;59438;45.014;39.006;2023-05-10T02:58:59;101558.97;;;9.79;82.09
71643;BME280;59438;45.014;39.006;2023-05-10T03:01:25;101566.00;;;9.77;81.94
71643;BME280;59438;45.014;39.006;2023-05-10T03:03:51;101568.66;;;9.76;82.09
71643;BME280;59438;45.014;39.006;2023-05-10T03:06:18;101572.19;;;9.75;81.46
71643;BME280;59438;45.014;39.006;2023-05-10T03:08:45;101538.44;;;9.56;81.02
71643;BME280;59438;45.014;39.006;2023-05-10T03:11:28;101562.56;;;9.75;81.66
71643;BME280;59438;45.014;39.006;2023-05-10T03:14:08;101561.69;;;9.75;81.44
71643;BME280;59438;45.014;39.006;2023-05-10T03:16:41;101566.84;;;9.79;81.15
71643;BME280;59438;45.014;39.006;2023-05-10T03:19:13;101574.69;;;9.81;81.94
71643;BME280;59438;45.014;39.006;2023-05-10T03:21:42;101574.66;;;9.82;81.08
71643;BME280;59438;45.014;39.006;2023-05-10T03:24:12;101584.22;;;9.85;81.12
71643;BME280;59438;45.014;39.006;2023-05-10T03:26:43;101576.34;;;9.86;81.63
71643;BME280;59438;45.014;39.006;2023-05-10T03:29:10;101582.34;;;9.92;81.15
71643;BME280;59438;45.014;39.006;2023-05-10T03:31:38;101583.25;;;9.91;81.20
71643;BME280;59438;45.014;39.006;2023-05-10T03:34:04;101583.19;;;9.92;81.47
71643;BME280;59438;45.014;39.006;2023-05-10T03:36:31;101586.72;;;9.91;81.79
71643;BME280;59438;45.014;39.006;2023-05-10T03:38:57;101588.44;;;9.92;81.48
71643;BME280;59438;45.014;39.006;2023-05-10T03:41:23;101578.91;;;9.88;81.27
71643;BME280;59438;45.014;39.006;2023-05-10T03:43:51;101591.91;;;9.94;81.88
71643;BME280;59438;45.014;39.006;2023-05-10T03:46:18;101604.16;;;9.95;82.07
71643;BME280;59438;45.014;39.006;2023-05-10T03:48:44;101599.78;;;9.94;81.72
71643;BME280;59438;45.014;39.006;2023-05-10T03:51:10;101602.47;;;9.93;81.25
71643;BME280;59438;45.014;39.006;2023-05-10T03:53:37;101602.47;;;9.93;81.58
71643;BME280;59438;45.014;39.006;2023-05-10T03:56:03;101608.56;;;9.93;81.46
71643;BME280;59438;45.014;39.006;2023-05-10T03:58:30;101611.22;;;9.90;81.67
71643;BME280;59438;45.014;39.006;2023-05-10T04:00:57;101613.78;;;9.95;81.81
71643;BME280;59438;45.014;39.006;2023-05-10T04:03:24;101619.78;;;10.00;81.93
71643;BME280;59438;45.014;39.006;2023-05-10T04:05:58;101610.16;;;10.00;81.11
71643;BME280;59438;45.014;39.006;2023-05-10T04:08:24;101598.03;;;9.95;81.25
71643;BME280;59438;45.014;39.006;2023-05-10T04:10:51;101620.47;;;10.09;80.80
71643;BME280;59438;45.014;39.006;2023-05-10T04:13:17;101616.06;;;10.12;81.05
71643;BME280;59438;45.014;39.006;2023-05-10T04:15:43;101623.03;;;10.13;81.33
71643;BME280;59438;45.014;39.006;2023-05-10T04:18:11;101613.41;;;10.13;81.58
71643;BME280;59438;45.014;39.006;2023-05-10T04:20:37;101617.00;;;10.09;80.73
71643;BME280;59438;45.014;39.006;2023-05-10T04:23:04;101621.44;;;10.05;80.24
71643;BME280;59438;45.014;39.006;2023-05-10T04:25:30;101628.50;;;10.02;80.76
71643;BME280;59438;45.014;39.006;2023-05-10T04:27:59;101623.34;;;9.99;81.24
71643;BME280;59438;45.014;39.006;2023-05-10T04:30:26;101631.22;;;9.97;80.63
71643;BME280;59438;45.014;39.006;2023-05-10T04:32:52;101629.53;;;9.95;80.98
71643;BME280;59438;45.014;39.006;2023-05-10T04:35:20;101643.53;;;9.94;80.85
71643;BME280;59438;45.014;39.006;2023-05-10T04:37:46;101641.81;;;9.93;81.29
71643;BME280;59438;45.014;39.006;2023-05-10T04:40:12;101641.84;;;9.91;80.85
71643;BME280;59438;45.014;39.006;2023-05-10T04:42:40;101634.00;;;9.89;80.82
71643;BME280;59438;45.014;39.006;2023-05-10T04:45:07;101613.22;;;9.79;81.28
71643;BME280;59438;45.014;39.006;2023-05-10T04:47:33;101631.44;;;9.86;80.72
71643;BME280;59438;45.014;39.006;2023-05-10T04:50:00;101634.94;;;9.85;80.64
71643;BME280;59438;45.014;39.006;2023-05-10T04:52:27;101636.72;;;9.83;80.77
71643;BME280;59438;45.014;39.006;2023-05-10T04:54:54;101637.66;;;9.81;81.12
71643;BME280;59438;45.014;39.006;2023-05-10T04:57:20;101636.84;;;9.77;80.96
71643;BME280;59438;45.014;39.006;2023-05-10T04:59:47;101642.09;;;9.77;80.77
71643;BME280;59438;45.014;39.006;2023-05-10T05:02:13;101634.22;;;9.77;80.82
71643;BME280;59438;45.014;39.006;2023-05-10T05:04:39;101644.63;;;9.82;80.71
71643;BME280;59438;45.014;39.006;2023-05-10T05:07:06;101645.44;;;9.85;80.35
71643;BME280;59438;45.014;39.006;2023-05-10T05:09:34;101640.06;;;9.92;81.00
71643;BME280;59438;45.014;39.006;2023-05-10T05:12:00;101640.88;;;9.95;79.56
71643;BME280;59438;45.014;39.006;2023-05-10T05:14:26;101652.19;;;9.99;80.79
71643;BME280;59438;45.014;39.006;2023-05-10T05:16:53;101652.16;;;10.00;80.73
71643;BME280;59438;45.014;39.006;2023-05-10T05:19:19;101653.91;;;10.01;80.08
71643;BME280;59438;45.014;39.006;2023-05-10T05:21:45;101660.06;;;9.99;80.05
71643;BME280;59438;45.014;39.006;2023-05-10T05:24:12;101667.13;;;9.95;79.92
71643;BME280;59438;45.014;39.006;2023-05-10T05:26:39;101657.59;;;9.91;79.92
71643;BME280;59438;45.014;39.006;2023-05-10T05:29:07;101645.66;;;9.75;80.44
71643;BME280;59438;45.014;39.006;2023-05-10T05:31:33;101665.59;;;9.83;80.47
71643;BME280;59438;45.014;39.006;2023-05-10T05:33:59;101664.75;;;9.81;79.73
71643;BME280;59438;45.014;39.006;2023-05-10T05:36:25;101669.13;;;9.82;80.21
71643;BME280;59438;45.014;39.006;2023-05-10T05:38:52;101676.16;;;9.80;79.50
71643;BME280;59438;45.014;39.006;2023-05-10T05:41:18;101673.59;;;9.77;80.28
71643;BME280;59438;45.014;39.006;2023-05-10T05:43:46;101678.91;;;9.74;79.70
71643;BME280;59438;45.014;39.006;2023-05-10T05:46:12;101671.09;;;9.69;80.37
71643;BME280;59438;45.014;39.006;2023-05-10T05:48:39;101685.84;;;9.77;80.12
71643;BME280;59438;45.014;39.006;2023-05-10T05:51:05;101681.41;;;9.80;80.04
71643;BME280;59438;45.014;39.006;2023-05-10T05:53:31;101683.97;;;9.83;79.73
71643;BME280;59438;45.014;39.006;2023-05-10T05:55:58;101687.38;;;9.88;80.02
71643;BME280;59438;45.014;39.006;2023-05-10T05:58:25;101680.41;;;9.87;79.34
71643;BME280;59438;45.014;39.006;2023-05-10T06:00:53;101675.28;;;9.80;79.22
71643;BME280;59438;45.014;39.006;2023-05-10T06:03:19;101690.88;;;9.89;79.72
71643;BME280;59438;45.014;39.006;2023-05-10T06:05:46;101698.75;;;9.87;79.82
71643;BME280;59438;45.014;39.006;2023-05-10T06:08:12;101692.66;;;9.87;79.30
71643;BME280;59438;45.014;39.006;2023-05-10T06:10:38;101683.84;;;9.89;79.25
71643;BME280;59438;45.014;39.006;2023-05-10T06:13:05;101688.16;;;9.92;79.19
71643;BME280;59438;45.014;39.006;2023-05-10T06:15:31;101680.28;;;9.94;79.15
71643;BME280;59438;45.014;39.006;2023-05-10T06:17:59;101698.53;;;10.01;78.71
71643;BME280;59438;45.014;39.006;2023-05-10T06:20:25;101687.91;;;10.06;78.88
71643;BME280;59438;45.014;39.006;2023-05-10T06:22:52;101693.97;;;10.11;78.38
71643;BME280;59438;45.014;39.006;2023-05-10T06:25:18;101691.25;;;10.16;77.60
71643;BME280;59438;45.014;39.006;2023-05-10T06:27:44;101678.94;;;10.18;78.19
71643;BME280;59438;45.014;39.006;2023-05-10T06:30:11;101686.72;;;10.24;77.89
71643;BME280;59438;45.014;39.006;2023-05-10T06:32:38;101687.47;;;10.29;78.88
71643;BME280;59438;45.014;39.006;2023-05-10T06:35:06;101692.72;;;10.29;78.79
71643;BME280;59438;45.014;39.006;2023-05-10T06:37:33;101687.56;;;10.24;77.60
71643;BME280;59438;45.014;39.006;2023-05-10T06:39:59;101688.41;;;10.26;78.04
71643;BME280;59438;45.014;39.006;2023-05-10T06:42:26;101702.44;;;10.25;78.04
71643;BME280;59438;45.014;39.006;2023-05-10T06:44:52;101697.19;;;10.25;77.88
71643;BME280;59438;45.014;39.006;2023-05-10T06:47:19;101698.09;;;10.23;77.88
71643;BME280;59438;45.014;39.006;2023-05-10T06:49:45;101696.25;;;10.28;77.32
71643;BME280;59438;45.014;39.006;2023-05-10T06:52:13;101701.41;;;10.34;77.78
71643;BME280;59438;45.014;39.006;2023-05-10T06:54:39;101709.09;;;10.43;78.23
71643;BME280;59438;45.014;39.006;2023-05-10T06:57:05;101706.34;;;10.49;77.38
71643;BME280;59438;45.014;39.006;2023-05-10T06:59:32;101712.41;;;10.53;76.73
71643;BME280;59438;45.014;39.006;2023-05-10T07:01:58;101714.13;;;10.54;76.70
71643;BME280;59438;45.014;39.006;2023-05-10T07:04:24;101715.78;;;10.58;76.40
71643;BME280;59438;45.014;39.006;2023-05-10T07:06:51;101706.88;;;10.65;76.10
71643;BME280;59438;45.014;39.006;2023-05-10T07:09:18;101711.06;;;10.76;76.13
71643;BME280;59438;45.014;39.006;2023-05-10T07:11:45;101712.56;;;10.87;76.26
71643;BME280;59438;45.014;39.006;2023-05-10T07:14:11;101701.81;;;10.97;76.32
71643;BME280;59438;45.014;39.006;2023-05-10T07:16:37;101695.56;;;11.02;76.05
71643;BME280;59438;45.014;39.006;2023-05-10T07:19:04;101709.16;;;11.20;74.80
71643;BME280;59438;45.014;39.006;2023-05-10T07:21:30;101712.31;;;11.36;74.68
71643;BME280;59438;45.014;39.006;2023-05-10T07:23:57;101704.13;;;11.46;74.24
71643;BME280;59438;45.014;39.006;2023-05-10T07:26:24;101705.44;;;11.64;73.74
71643;BME280;59438;45.014;39.006;2023-05-10T07:28:51;101699.81;;;11.80;74.33
71643;BME280;59438;45.014;39.006;2023-05-10T07:31:17;101694.28;;;11.91;73.91
71643;BME280;59438;45.014;39.006;2023-05-10T07:33:43;101693.03;;;12.04;73.08
71643;BME280;59438;45.014;39.006;2023-05-10T07:36:10;101704.31;;;12.09;72.96
71643;BME280;59438;45.014;39.006;2023-05-10T07:38:36;101702.44;;;12.13;72.18
71643;BME280;59438;45.014;39.006;2023-05-10T07:41:03;101713.38;;;11.99;72.02
71643;BME280;59438;45.014;39.006;2023-05-10T07:43:30;101711.13;;;11.82;71.31
71643;BME280;59438;45.014;39.006;2023-05-10T07:45:57;101710.75;;;11.63;72.08
71643;BME280;59438;45.014;39.006;2023-05-10T07:48:23;101712.97;;;11.44;72.04
71643;BME280;59438;45.014;39.006;2023-05-10T07:50:49;101723.78;;;11.33;73.28
71643;BME280;59438;45.014;39.006;2023-05-10T07:53:16;101712.44;;;11.29;73.00
71643;BME280;59438;45.014;39.006;2023-05-10T07:55:42;101688.91;;;11.25;72.97
71643;BME280;59438;45.014;39.006;2023-05-10T07:58:08;101710.38;;;11.42;72.72
71643;BME280;59438;45.014;39.006;2023-05-10T08:00:36;101708.41;;;11.52;72.36
71643;BME280;59438;45.014;39.006;2023-05-10T08:03:03;101714.28;;;11.62;72.86
71643;BME280;59438;45.014;39.006;2023-05-10T08:05:29;101711.47;;;11.69;71.95
71643;BME280;59438;45.014;39.006;2023-05-10T08:07:55;101712.91;;;11.81;72.41
71643;BME280;59438;45.014;39.006;2023-05-10T08:10:22;101705.53;;;11.96;71.86
71643;BME280;59438;45.014;39.006;2023-05-10T08:12:48;101699.91;;;12.09;71.28
71643;BME280;59438;45.014;39.006;2023-05-10T08:15:15;101709.28;;;12.20;71.20
71643;BME280;59438;45.014;39.006;2023-05-10T08:17:42;101711.66;;;12.29;70.67
71643;BME280;59438;45.014;39.006;2023-05-10T08:20:09;101707.81;;;12.41;70.90
71643;BME280;59438;45.014;39.006;2023-05-10T08:22:36;101695.28;;;12.49;70.65
71643;BME280;59438;45.014;39.006;2023-05-10T08:25:02;101702.19;;;12.53;70.26
71643;BME280;59438;45.014;39.006;2023-05-10T08:27:28;101716.47;;;12.46;70.35
71643;BME280;59438;45.014;39.006;2023-05-10T08:29:55;101704.69;;;12.26;70.14
71643;BME280;59438;45.014;39.006;2023-05-10T08:32:21;101718.38;;;12.08;70.53
71643;BME280;59438;45.014;39.006;2023-05-10T08:34:49;101718.56;;;12.00;70.03
71643;BME280;59438;45.014;39.006;2023-05-10T08:37:15;101702.09;;;11.94;70.70
71643;BME280;59438;45.014;39.006;2023-05-10T08:39:42;101709.91;;;11.97;70.50
71643;BME280;59438;45.014;39.006;2023-05-10T08:42:09;101705.63;;;11.93;70.49
71643;BME280;59438;45.014;39.006;2023-05-10T08:44:36;101714.53;;;11.88;70.49
71643;BME280;59438;45.014;39.006;2023-05-10T08:47:04;101712.09;;;11.79;70.53
71643;BME280;59438;45.014;39.006;2023-05-10T08:49:32;101720.06;;;11.76;70.32
71643;BME280;59438;45.014;39.006;2023-05-10T08:52:02;101713.19;;;11.70;69.74
71643;BME280;59438;45.014;39.006;2023-05-10T08:54:29;101713.31;;;11.66;70.87
71643;BME280;59438;45.014;39.006;2023-05-10T08:56:56;101713.34;;;11.64;70.75
71643;BME280;59438;45.014;39.006;2023-05-10T08:59:22;101713.38;;;11.63;69.95
71643;BME280;59438;45.014;39.006;2023-05-10T09:01:49;101704.47;;;11.68;70.34
71643;BME280;59438;45.014;39.006;2023-05-10T09:04:16;101707.75;;;11.78;70.82
71643;BME280;59438;45.014;39.006;2023-05-10T09:06:43;101708.34;;;11.89;70.24
71643;BME280;59438;45.014;39.006;2023-05-10T09:09:10;101701.03;;;12.01;69.44
71643;BME280;59438;45.014;39.006;2023-05-10T09:11:38;101705.88;;;12.16;69.71
71643;BME280;59438;45.014;39.006;2023-05-10T09:14:04;101704.72;;;12.25;69.29
71643;BME280;59438;45.014;39.006;2023-05-10T09:16:30;101704.53;;;12.33;69.28
71643;BME280;59438;45.014;39.006;2023-05-10T09:18:57;101698.19;;;12.40;69.32
71643;BME280;59438;45.014;39.006;2023-05-10T09:21:23;101696.03;;;12.54;68.81
71643;BME280;59438;45.014;39.006;2023-05-10T09:23:49;101699.38;;;12.59;68.41
71643;BME280;59438;45.014;39.006;2023-05-10T09:26:22;101682.72;;;12.57;66.28
71643;BME280;59438;45.014;39.006;2023-05-10T09:28:53;101702.41;;;12.75;65.40
71643;BME280;59438;45.014;39.006;2023-05-10T09:31:20;101697.81;;;12.82;67.64
71643;BME280;59438;45.014;39.006;2023-05-10T09:33:47;101702.94;;;12.86;67.31
71643;BME280;59438;45.014;39.006;2023-05-10T09:36:14;101709.19;;;12.84;67.35
71643;BME280;59438;45.014;39.006;2023-05-10T09:38:48;101713.81;;;12.76;65.00
71643;BME280;59438;45.014;39.006;2023-05-10T09:41:21;101711.53;;;12.63;65.42
71643;BME280;59438;45.014;39.006;2023-05-10T09:43:47;101710.06;;;12.55;67.96
71643;BME280;59438;45.014;39.006;2023-05-10T09:46:14;101701.31;;;12.53;67.72
71643;BME280;59438;45.014;39.006;2023-05-10T09:48:42;101698.31;;;12.65;67.94
71643;BME280;59438;45.014;39.006;2023-05-10T09:51:09;101704.81;;;12.83;67.83
71643;BME280;59438;45.014;39.006;2023-05-10T09:53:35;101694.84;;;12.93;67.23
71643;BME280;59438;45.014;39.006;2023-05-10T09:56:02;101706.75;;;13.06;67.25
71643;BME280;59438;45.014;39.006;2023-05-10T09:58:30;101705.59;;;13.15;66.55
71643;BME280;59438;45.014;39.006;2023-05-10T10:00:57;101709.66;;;13.25;66.69
71643;BME280;59438;45.014;39.006;2023-05-10T10:03:24;101707.66;;;13.33;66.27
71643;BME280;59438;45.014;39.006;2023-05-10T10:05:52;101709.16;;;13.40;65.17
71643;BME280;59438;45.014;39.006;2023-05-10T10:08:20;101703.78;;;13.45;66.15
71643;BME280;59438;45.014;39.006;2023-05-10T10:10:47;101698.31;;;13.49;65.39
71643;BME280;59438;45.014;39.006;2023-05-10T10:13:13;101698.09;;;13.57;65.58
71643;BME280;59438;45.014;39.006;2023-05-10T10:15:42;101695.28;;;13.62;64.81
71643;BME280;59438;45.014;39.006;2023-05-10T10:18:12;101688.25;;;13.61;63.17
71643;BME280;59438;45.014;39.006;2023-05-10T10:20:40;101705.88;;;13.60;64.89
71643;BME280;59438;45.014;39.006;2023-05-10T10:23:09;101699.09;;;13.53;65.34
71643;BME280;59438;45.014;39.006;2023-05-10T10:25:35;101701.16;;;13.43;65.41
71643;BME280;59438;45.014;39.006;2023-05-10T10:28:12;101695.28;;;13.35;63.20
71643;BME280;59438;45.014;39.006;2023-05-10T10:30:45;101691.19;;;13.25;64.18
71643;BME280;59438;45.014;39.006;2023-05-10T10:33:33;101698.38;;;13.20;64.38
71643;BME280;59438;45.014;39.006;2023-05-10T10:36:03;101696.91;;;13.11;65.52
71643;BME280;59438;45.014;39.006;2023-05-10T10:38:37;101704.16;;;13.04;64.42
71643;BME280;59438;45.014;39.006;2023-05-10T10:41:09;101699.03;;;13.00;64.09
71643;BME280;59438;45.014;39.006;2023-05-10T10:43:36;101706.16;;;12.96;65.41
71643;BME280;59438;45.014;39.006;2023-05-10T10:46:14;101713.19;;;12.97;64.17
71643;BME280;59438;45.014;39.006;2023-05-10T10:48:41;101708.72;;;12.99;65.20
71643;BME280;59438;45.014;39.006;2023-05-10T10:51:08;101705.88;;;13.05;64.87
71643;BME280;59438;45.014;39.006;2023-05-10T10:53:34;101712.06;;;13.04;65.03
71643;BME280;59438;45.014;39.006;2023-05-10T10:56:05;101720.09;;;13.01;63.79
71643;BME280;59438;45.014;39.006;2023-05-10T10:58:33;101712.25;;;12.98;63.29
71643;BME280;59438;45.014;39.006;2023-05-10T11:01:15;101706.09;;;12.99;64.04
71643;BME280;59438;45.014;39.006;2023-05-10T11:06:36;101681.38;;;13.02;64.15
71643;BME280;59438;45.014;39.006;2023-05-10T11:09:08;101713.09;;;13.27;62.80
71643;BME280;59438;45.014;39.006;2023-05-10T11:11:35;101708.44;;;13.37;64.37
71643;BME280;59438;45.014;39.006;2023-05-10T11:14:04;101714.38;;;13.43;63.17
71643;BME280;59438;45.014;39.006;2023-05-10T11:16:41;101707.25;;;13.45;62.35
71643;BME280;59438;45.014;39.006;2023-05-10T11:19:09;101685.78;;;13.29;62.66
71643;BME280;59438;45.014;39.006;2023-05-10T11:21:46;101692.84;;;13.29;62.33
71643;BME280;59438;45.014;39.006;2023-05-10T11:24:14;101695.44;;;13.30;63.04
71643;BME280;59438;45.014;39.006;2023-05-10T11:26:40;101715.59;;;13.33;63.58
71643;BME280;59438;45.014;39.006;2023-05-10T11:29:07;101720.00;;;13.33;64.24
71643;BME280;59438;45.014;39.006;2023-05-10T11:31:34;101713.78;;;13.34;64.20
71643;BME280;59438;45.014;39.006;2023-05-10T11:34:02;101718.09;;;13.36;63.08
71643;BME280;59438;45.014;39.006;2023-05-10T11:36:29;101721.56;;;13.38;63.68
71643;BME280;59438;45.014;39.006;2023-05-10T11:38:56;101713.63;;;13.38;63.68
71643;BME280;59438;45.014;39.006;2023-05-10T11:41:23;101711.00;;;13.38;63.72
71643;BME280;59438;45.014;39.006;2023-05-10T11:43:51;101715.22;;;13.44;63.70
71643;BME280;59438;45.014;39.006;2023-05-10T11:46:19;101714.97;;;13.52;64.13
71643;BME280;59438;45.014;39.006;2023-05-10T11:48:47;101686.97;;;13.47;63.15
71643;BME280;59438;45.014;39.006;2023-05-10T11:51:20;101716.28;;;13.65;62.24
71643;BME280;59438;45.014;39.006;2023-05-10T11:53:46;101720.63;;;13.67;63.55
71643;BME280;59438;45.014;39.006;2023-05-10T11:56:13;101719.00;;;13.63;63.40
71643;BME280;59438;45.014;39.006;2023-05-10T11:58:41;101704.97;;;13.61;63.15
71643;BME280;59438;45.014;39.006;2023-05-10T12:01:07;101710.19;;;13.63;62.73
71643;BME280;59438;45.014;39.006;2023-05-10T12:03:34;101710.19;;;13.63;62.99
71643;BME280;59438;45.014;39.006;2023-05-10T12:06:02;101697.97;;;13.60;62.60
71643;BME280;59438;45.014;39.006;2023-05-10T12:08:30;101719.28;;;13.81;62.52
71643;BME280;59438;45.014;39.006;2023-05-10T12:11:05;101712.75;;;13.91;61.58
71643;BME280;59438;45.014;39.006;2023-05-10T12:13:31;101696.72;;;13.96;62.21
71643;BME280;59438;45.014;39.006;2023-05-10T12:15:58;101699.75;;;14.10;62.59
71643;BME280;59438;45.014;39.006;2023-05-10T12:18:25;101698.03;;;14.09;62.28
71643;BME280;59438;45.014;39.006;2023-05-10T12:20:52;101699.59;;;14.15;61.30
71643;BME280;59438;45.014;39.006;2023-05-10T12:23:20;101698.13;;;14.06;60.97
71643;BME280;59438;45.014;39.006;2023-05-10T12:25:48;101709.63;;;14.05;60.54
71643;BME280;59438;45.014;39.006;2023-05-10T12:28:14;101697.44;;;14.01;61.10
71643;BME280;59438;45.014;39.006;2023-05-10T12:30:40;101694.00;;;13.99;61.55
71643;BME280;59438;45.014;39.006;2023-05-10T12:33:08;101702.81;;;13.98;61.02
71643;BME280;59438;45.014;39.006;2023-05-10T12:35:44;101706.34;;;13.98;59.46
71643;BME280;59438;45.014;39.006;2023-05-10T12:38:28;101701.13;;;13.97;60.33
71643;BME280;59438;45.014;39.006;2023-05-10T12:40:57;101712.66;;;13.94;60.35
71643;BME280;59438;45.014;39.006;2023-05-10T12:43:23;101719.78;;;13.92;60.88
71643;BME280;59438;45.014;39.006;2023-05-10T12:45:51;101710.28;;;13.86;61.29
71643;BME280;59438;45.014;39.006;2023-05-10T12:48:17;101717.47;;;13.81;61.29
71643;BME280;59438;45.014;39.006;2023-05-10T12:50:43;101706.19;;;13.78;61.32
71643;BME280;59438;45.014;39.006;2023-05-10T12:53:10;101714.03;;;13.79;61.40
71643;BME280;59438;45.014;39.006;2023-05-10T12:55:36;101721.94;;;13.79;61.49
71643;BME280;59438;45.014;39.006;2023-05-10T12:58:04;101711.34;;;13.81;61.56